Airfield :
LOGIN :

Register | Disclaimer

   EN    FR    IT 

 










Legend :    VFR   Marginal VFR   IFR   Intensive IFR   Very Intensive IFR
Visi :
Ceiling :
>= 8 km
>= 3000ft
5 to 8 km
1000 to 3000 ft
1500m to 5 km
500 to 1000 ft
800 to 1500m
200 to 500 ft
< 800m
< 200 ft
Symbols :   Thunderstorms  Fog  Heavy snow  Heavy precipitations  Wind > 20 kt
SIGMETs :     Misc.  Thunderstorms  Icing  Turbulence  Mountain Waves  Volcanic Ashes







- Airport Elevation : 390 ft
- IATA code : NQY
- Download approach charts


EGHQ - Newquay

CURRENT METAR :
  • 191220Z 17023G35KT 9999 RA BKN008 14/12 Q0998

EXPIRED METARs :
  • 191150Z 16022KT 9999 -RA BKN008 14/12 Q0998
  • 191120Z 16017KT 9999 -SHRA SCT010 14/12 Q0999
  • 191050Z 16017KT 9999 SCT010 14/12 Q1000
  • 191020Z 15014KT 9999 -SHRA FEW008 13/12 Q1000
  • 190950Z 16015KT 9999 FEW008 13/12 Q1001

TAF TAF EGHQ
Valid from the 19 at 12:00 until the 19 at 21:00 UTC


191101Z 1912/1921 16016KT 9999 SCT008
TEMPO 1912/1914 18020G30KT 7000 RA BKN006
BECMG 1914/1916 26028G38KT
TEMPO 1914/1918 6000 SHRA BKN006
No reported NOTAMs for that airfield.



MET'MAP, your aeronautical weather chart ! - Copyright ORBIFLY December 2007 - Disclaimer

ORBIFLY MET'MAP TEAM :

Programming & Development : Alexandra Zaïnal
Concept & Development : Baudouin d'Aumeries
Co-Development & Prog : Marc-Olivier Méhu
Technical & hardware support : Manuel Goepfert

Contact : metmap@orbifly.com




SOURCES & CREDITS :

   NOAA